Time;durP1;ratioP1;P1;durP2;ratioP2;P2;SDS_P1;SDS_P2;PMS_P1;PMS_P2;Temp;Humidity;BMP_temperature;BMP_pressure;BME280_temperature;BME280_humidity;BME280_pressure;Samples;Min_cycle;Max_cycle;Signal;HPM_P1;HPM_P2
2022/12/28 00:00:07;;;;;;;6.88;2.78;;;8.80;76.20;;;;;;5016659;28;20033;-76
2022/12/28 00:02:38;;;;;;;8.85;3.28;;;8.80;76.30;;;;;;5047153;28;20028;-75
2022/12/28 00:05:04;;;;;;;8.43;2.72;;;8.80;76.40;;;;;;5034166;28;20030;-75
2022/12/28 00:07:29;;;;;;;8.05;2.83;;;8.80;76.50;;;;;;5022164;28;20071;-75
2022/12/28 00:09:55;;;;;;;7.32;3.00;;;8.80;76.70;;;;;;5049520;28;20037;-75
2022/12/28 00:12:21;;;;;;;9.38;2.90;;;8.80;76.80;;;;;;5044840;28;20021;-76
2022/12/28 00:14:47;;;;;;;8.93;2.65;;;8.70;76.90;;;;;;5022248;28;20029;-76
2022/12/28 00:17:13;;;;;;;8.15;3.03;;;8.70;76.90;;;;;;5033283;28;20021;-76
2022/12/28 00:19:39;;;;;;;10.02;2.85;;;8.70;77.10;;;;;;5052180;28;20374;-76
2022/12/28 00:22:04;;;;;;;6.85;3.08;;;8.70;77.20;;;;;;5038695;28;20160;-76
2022/12/28 00:24:33;;;;;;;6.90;2.50;;;8.70;77.30;;;;;;5043684;28;20096;-76
2022/12/28 00:26:59;;;;;;;6.93;3.00;;;8.70;77.30;;;;;;5039360;28;20391;-76
2022/12/28 00:29:26;;;;;;;4.95;2.35;;;8.70;77.40;;;;;;5063459;28;20021;-76
2022/12/28 00:31:52;;;;;;;8.20;3.10;;;8.70;77.50;;;;;;5043834;28;20026;-76
2022/12/28 00:34:22;;;;;;;8.95;3.45;;;8.70;77.50;;;;;;5054707;28;20357;-76
2022/12/28 00:36:52;;;;;;;8.93;2.92;;;8.70;77.60;;;;;;5019086;28;20036;-76
2022/12/28 00:39:20;;;;;;;9.73;3.17;;;8.70;77.60;;;;;;5037808;28;20038;-76
2022/12/28 00:41:46;;;;;;;8.80;2.88;;;8.80;77.70;;;;;;5050768;28;20078;-76
2022/12/28 00:44:12;;;;;;;8.07;3.60;;;8.80;77.60;;;;;;5043107;28;20405;-76
2022/12/28 00:46:38;;;;;;;7.97;2.33;;;8.80;77.70;;;;;;5031327;28;20116;-76
2022/12/28 00:49:03;;;;;;;8.38;3.10;;;8.70;77.70;;;;;;5043574;28;20022;-76
2022/12/28 00:51:29;;;;;;;7.30;2.67;;;8.70;77.70;;;;;;5047408;28;20497;-76
2022/12/28 00:53:55;;;;;;;7.10;2.53;;;8.70;77.80;;;;;;5052719;28;20025;-76
2022/12/28 00:56:22;;;;;;;7.55;2.47;;;8.80;77.90;;;;;;5039249;28;20524;-76
2022/12/28 00:58:48;;;;;;;5.60;2.28;;;8.70;77.80;;;;;;5031948;28;20030;-76
2022/12/28 01:01:17;;;;;;;6.85;2.42;;;8.70;77.90;;;;;;5036369;28;20033;-76
2022/12/28 01:03:43;;;;;;;8.80;3.45;;;8.80;78.00;;;;;;5032990;28;20065;-76
2022/12/28 01:06:11;;;;;;;7.53;3.05;;;8.80;78.00;;;;;;5031228;28;20068;-76
2022/12/28 01:08:38;;;;;;;7.95;2.67;;;8.80;77.90;;;;;;5019806;28;20099;-76
2022/12/28 01:11:08;;;;;;;7.40;2.53;;;8.80;77.90;;;;;;5038561;28;20025;-76
2022/12/28 01:13:34;;;;;;;10.23;2.70;;;8.80;77.90;;;;;;5038429;28;20041;-76
2022/12/28 01:16:08;;;;;;;6.95;2.45;;;8.80;78.00;;;;;;5037263;28;20025;-75
2022/12/28 01:18:34;;;;;;;5.05;2.22;;;8.90;77.90;;;;;;5068311;28;20029;-76
2022/12/28 01:21:06;;;;;;;8.43;2.58;;;8.90;77.90;;;;;;5048995;28;20093;-76
2022/12/28 01:23:31;;;;;;;6.63;2.50;;;8.80;77.80;;;;;;5049815;28;20040;-76
2022/12/28 01:26:01;;;;;;;7.05;2.58;;;8.80;77.80;;;;;;5025526;28;20044;-76
2022/12/28 01:28:28;;;;;;;7.68;3.13;;;8.80;77.80;;;;;;5051180;28;20044;-76
2022/12/28 01:30:54;;;;;;;8.00;2.78;;;8.80;77.80;;;;;;5049646;28;20168;-76
2022/12/28 01:33:19;;;;;;;7.53;2.83;;;8.80;77.90;;;;;;5030226;28;20105;-76
2022/12/28 01:35:47;;;;;;;8.23;2.67;;;8.90;77.90;;;;;;5036569;28;20022;-76
2022/12/28 01:38:12;;;;;;;9.98;3.08;;;8.90;78.00;;;;;;5068446;28;20446;-76
2022/12/28 01:40:42;;;;;;;7.32;2.88;;;8.90;77.90;;;;;;5035309;28;20033;-76
2022/12/28 01:43:18;;;;;;;8.43;2.90;;;8.90;77.90;;;;;;5036126;28;20040;-76
2022/12/28 01:45:50;;;;;;;10.40;3.65;;;8.90;77.90;;;;;;5029654;28;20029;-76
2022/12/28 01:48:23;;;;;;;7.95;2.72;;;8.90;77.90;;;;;;5053100;28;20032;-76
2022/12/28 01:50:50;;;;;;;6.47;2.67;;;9.00;78.00;;;;;;5019796;28;20453;-76
2022/12/28 01:53:18;;;;;;;5.75;2.65;;;9.00;77.90;;;;;;5009403;28;20017;-76
2022/12/28 01:55:46;;;;;;;7.43;3.22;;;9.00;77.90;;;;;;5035785;28;20017;-76
2022/12/28 01:58:20;;;;;;;7.25;3.10;;;9.00;78.10;;;;;;5045920;28;20519;-76
2022/12/28 02:00:46;;;;;;;6.30;2.95;;;9.00;77.80;;;;;;5018867;28;20032;-76
2022/12/28 02:03:19;;;;;;;6.55;2.92;;;9.00;77.90;;;;;;5015298;28;20025;-76
2022/12/28 02:05:48;;;;;;;7.50;3.38;;;9.10;78.00;;;;;;5018760;28;20025;-76
2022/12/28 02:08:49;;;;;;;6.00;2.80;;;9.00;78.00;;;;;;5068356;28;20104;-76
2022/12/28 02:11:17;;;;;;;8.05;3.60;;;9.00;78.00;;;;;;5007063;28;20041;-76
2022/12/28 02:13:49;;;;;;;7.72;3.10;;;9.10;78.10;;;;;;5057842;28;20017;-76
2022/12/28 02:16:17;;;;;;;6.05;2.90;;;9.10;78.10;;;;;;5033742;28;20468;-76
2022/12/28 02:18:45;;;;;;;9.30;3.40;;;9.10;78.10;;;;;;5023134;28;20030;-76
2022/12/28 02:21:16;;;;;;;8.80;3.15;;;9.10;78.10;;;;;;5011761;28;20085;-76
2022/12/28 02:24:11;;;;;;;10.70;3.20;;;9.10;78.20;;;;;;5027221;28;20064;-76
2022/12/28 02:26:42;;;;;;;8.00;3.83;;;9.10;78.20;;;;;;5019614;28;20049;-76
2022/12/28 02:29:36;;;;;;;7.35;2.95;;;9.10;78.30;;;;;;5018419;28;20037;-76
2022/12/28 02:32:01;;;;;;;7.18;3.10;;;9.10;78.20;;;;;;5021287;28;20021;-76
2022/12/28 02:34:56;;;;;;;10.00;3.10;;;9.10;78.30;;;;;;5030127;28;20039;-74
2022/12/28 02:37:29;;;;;;;8.95;2.67;;;9.10;78.30;;;;;;5034516;28;20144;-75
2022/12/28 02:40:01;;;;;;;5.82;2.70;;;9.10;78.40;;;;;;5051707;28;20037;-75
2022/12/28 02:42:29;;;;;;;7.55;3.15;;;9.10;78.40;;;;;;5036134;28;20036;-75
2022/12/28 02:50:58;;;;;;;6.35;2.83;;;9.20;78.50;;;;;;5039350;28;20087;-75
2022/12/28 02:53:51;;;;;;;9.32;2.90;;;9.20;78.60;;;;;;5013788;28;20033;-75
2022/12/28 02:56:44;;;;;;;6.32;3.17;;;9.20;78.70;;;;;;5048263;28;20104;-76
2022/12/28 02:59:24;;;;;;;6.82;2.80;;;9.20;78.80;;;;;;5047085;28;20029;-76
2022/12/28 03:02:19;;;;;;;7.15;3.00;;;9.10;79.00;;;;;;5039721;28;20112;-76
2022/12/28 03:05:07;;;;;;;7.70;3.22;;;9.10;79.30;;;;;;5041964;28;20060;-76
2022/12/28 03:10:55;;;;;;;5.85;2.58;;;9.10;79.60;;;;;;5048424;28;20096;-76
2022/12/28 03:13:51;;;;;;;7.55;3.47;;;9.10;79.70;;;;;;5055439;28;20017;-76
2022/12/28 03:16:30;;;;;;;6.40;2.85;;;9.10;79.90;;;;;;5044370;28;20036;-76
2022/12/28 03:33:09;;;;;;;7.72;3.45;;;9.10;80.70;;;;;;5030595;28;20049;-76
2022/12/28 03:35:49;;;;;;;8.90;3.72;;;9.10;80.80;;;;;;5036635;28;20371;-76
2022/12/28 03:38:28;;;;;;;8.30;3.55;;;9.10;81.00;;;;;;5027654;28;20040;-76
2022/12/28 03:41:04;;;;;;;8.38;3.22;;;9.10;81.10;;;;;;5042430;28;20029;-76
2022/12/28 03:43:42;;;;;;;6.15;2.90;;;9.20;81.20;;;;;;5033610;28;20060;-76
2022/12/28 03:46:32;;;;;;;6.85;2.55;;;9.10;81.30;;;;;;5015163;28;20040;-76
2022/12/28 03:48:59;;;;;;;5.93;2.88;;;9.10;81.40;;;;;;5035581;28;20029;-76
2022/12/28 03:51:30;;;;;;;7.63;3.40;;;9.10;81.40;;;;;;5016386;28;20029;-76
2022/12/28 03:53:58;;;;;;;7.97;3.00;;;9.10;81.50;;;;;;5015640;28;20022;-76
2022/12/28 03:56:26;;;;;;;6.85;2.70;;;9.20;81.60;;;;;;5017938;28;20461;-76
2022/12/28 03:58:55;;;;;;;7.53;3.22;;;9.20;81.70;;;;;;5042598;28;20029;-76
2022/12/28 04:01:24;;;;;;;7.25;3.10;;;9.20;81.70;;;;;;5046444;28;20412;-76
2022/12/28 04:03:49;;;;;;;6.97;3.50;;;9.20;81.80;;;;;;5026971;28;20180;-76
2022/12/28 04:06:18;;;;;;;6.93;3.13;;;9.20;81.90;;;;;;5031273;28;20037;-76
2022/12/28 04:08:46;;;;;;;8.38;3.20;;;9.20;82.00;;;;;;5049063;28;20022;-76
2022/12/28 04:11:13;;;;;;;6.38;3.10;;;9.20;82.10;;;;;;5024196;28;20036;-76
2022/12/28 04:13:40;;;;;;;6.53;3.38;;;9.20;82.10;;;;;;5037183;28;20026;-76
2022/12/28 04:16:10;;;;;;;6.93;3.45;;;9.30;82.20;;;;;;5021196;28;20033;-76
2022/12/28 04:18:37;;;;;;;7.20;3.40;;;9.30;82.30;;;;;;5026085;28;20029;-76
2022/12/28 04:21:03;;;;;;;7.22;3.25;;;9.30;82.30;;;;;;5068661;28;20037;-76
2022/12/28 04:23:30;;;;;;;6.30;3.13;;;9.30;82.50;;;;;;5038671;28;20095;-76
2022/12/28 04:26:16;;;;;;;6.22;3.05;;;9.30;82.50;;;;;;5053716;28;20051;-76
2022/12/28 04:28:44;;;;;;;7.82;3.38;;;9.30;82.60;;;;;;5036551;28;20469;-76
2022/12/28 04:31:22;;;;;;;6.38;3.00;;;9.30;82.70;;;;;;5037771;28;20037;-76
2022/12/28 04:33:56;;;;;;;7.03;3.58;;;9.30;82.70;;;;;;5033457;28;20380;-76
2022/12/28 04:36:22;;;;;;;7.32;3.13;;;9.30;82.70;;;;;;5045965;28;20079;-76
2022/12/28 04:38:49;;;;;;;6.97;3.53;;;9.30;82.80;;;;;;5052535;28;20450;-76
2022/12/28 04:41:15;;;;;;;7.38;3.42;;;9.30;82.90;;;;;;5051402;28;20021;-76
2022/12/28 04:43:41;;;;;;;8.65;3.40;;;9.40;82.90;;;;;;5034786;28;20099;-76
2022/12/28 04:46:12;;;;;;;8.60;3.28;;;9.40;83.10;;;;;;5052064;28;20079;-76
2022/12/28 04:48:38;;;;;;;6.55;3.53;;;9.40;83.20;;;;;;5037271;28;20041;-76
2022/12/28 04:51:24;;;;;;;8.02;3.38;;;9.40;83.20;;;;;;5049471;28;20018;-75
2022/12/28 04:53:51;;;;;;;7.88;3.40;;;9.40;83.20;;;;;;5047029;28;20025;-75
2022/12/28 04:56:17;;;;;;;7.03;3.17;;;9.40;83.30;;;;;;5043634;28;20033;-75
2022/12/28 04:58:45;;;;;;;7.07;3.55;;;9.40;83.40;;;;;;5034023;28;20045;-75
2022/12/28 05:01:14;;;;;;;8.93;3.20;;;9.40;83.40;;;;;;5041302;28;20465;-75
2022/12/28 05:03:41;;;;;;;6.55;3.28;;;9.40;83.50;;;;;;5040640;28;20447;-75
2022/12/28 05:06:11;;;;;;;9.05;3.53;;;9.40;83.60;;;;;;5037153;28;20037;-75
2022/12/28 05:08:37;;;;;;;7.55;3.70;;;9.50;83.70;;;;;;5054234;28;20132;-75
2022/12/28 05:11:06;;;;;;;7.05;3.38;;;9.50;83.70;;;;;;5017419;28;20454;-75
2022/12/28 05:13:32;;;;;;;7.47;3.40;;;9.50;83.80;;;;;;5022956;28;20466;-75
2022/12/28 05:16:12;;;;;;;7.68;3.78;;;9.50;83.80;;;;;;5041585;28;20087;-75
2022/12/28 05:18:38;;;;;;;7.95;3.75;;;9.50;83.90;;;;;;5037980;28;20111;-74
2022/12/28 05:21:25;;;;;;;7.88;3.95;;;9.50;83.90;;;;;;5044547;28;20108;-75
2022/12/28 05:23:51;;;;;;;7.88;3.80;;;9.50;83.90;;;;;;5045429;28;20033;-75
2022/12/28 05:26:20;;;;;;;6.25;3.20;;;9.50;84.00;;;;;;5019970;28;20528;-75
2022/12/28 05:28:46;;;;;;;7.00;3.47;;;9.60;84.10;;;;;;5019635;28;20618;-75
2022/12/28 05:31:18;;;;;;;8.38;3.67;;;9.50;84.00;;;;;;5036218;28;20112;-75
2022/12/28 05:33:44;;;;;;;9.15;3.70;;;9.60;84.20;;;;;;5040075;28;20030;-75
2022/12/28 05:36:13;;;;;;;9.38;3.85;;;9.60;84.20;;;;;;5049196;28;20030;-75
2022/12/28 05:38:39;;;;;;;7.32;3.60;;;9.60;84.30;;;;;;5031095;28;20053;-76
2022/12/28 05:41:12;;;;;;;6.75;3.53;;;9.60;84.30;;;;;;5048185;28;20088;-76
2022/12/28 05:43:38;;;;;;;7.43;3.65;;;9.60;84.30;;;;;;5022405;28;20112;-76
2022/12/28 05:46:07;;;;;;;6.85;3.85;;;9.60;84.30;;;;;;5042829;28;20430;-77
2022/12/28 05:48:35;;;;;;;7.50;3.97;;;9.60;84.50;;;;;;5042675;28;20039;-77
2022/12/28 05:51:03;;;;;;;8.25;3.60;;;9.60;84.50;;;;;;5030121;28;20025;-77
2022/12/28 05:53:30;;;;;;;6.95;3.35;;;9.60;84.60;;;;;;5017642;28;20059;-77
2022/12/28 05:56:05;;;;;;;7.63;3.63;;;9.60;84.60;;;;;;5040036;28;20091;-77
2022/12/28 05:58:31;;;;;;;9.65;3.63;;;9.60;84.70;;;;;;5043023;28;20077;-77
2022/12/28 06:01:07;;;;;;;7.53;3.55;;;9.60;84.70;;;;;;5048533;28;20021;-77
2022/12/28 06:03:33;;;;;;;6.60;3.28;;;9.60;84.80;;;;;;5045198;28;20072;-78
2022/12/28 06:06:10;;;;;;;8.02;3.00;;;9.60;84.80;;;;;;5053084;28;20107;-77
2022/12/28 06:08:36;;;;;;;6.35;3.05;;;9.60;84.90;;;;;;5032477;28;20048;-77
2022/12/28 06:11:04;;;;;;;8.95;3.45;;;9.70;85.00;;;;;;5019294;28;20116;-77
2022/12/28 06:13:31;;;;;;;6.82;3.50;;;9.70;84.90;;;;;;5037652;28;20117;-78
2022/12/28 06:15:57;;;;;;;6.18;2.88;;;9.70;84.90;;;;;;5055959;28;20052;-77
2022/12/28 06:18:27;;;;;;;7.22;3.05;;;9.70;84.90;;;;;;5066352;28;20051;-77
2022/12/28 06:20:53;;;;;;;5.90;3.08;;;9.70;85.00;;;;;;5038099;28;20389;-77
2022/12/28 06:23:18;;;;;;;8.82;3.08;;;9.70;85.00;;;;;;5036864;28;20030;-77
2022/12/28 06:25:44;;;;;;;6.43;3.17;;;9.70;85.10;;;;;;5048955;28;20053;-77
2022/12/28 06:28:10;;;;;;;4.72;2.25;;;9.70;85.20;;;;;;5041162;28;20369;-77
2022/12/28 06:30:36;;;;;;;5.72;2.60;;;9.70;85.20;;;;;;5044753;28;20026;-77
2022/12/28 06:33:01;;;;;;;6.22;2.88;;;9.70;85.20;;;;;;5050388;28;20385;-77
2022/12/28 06:35:27;;;;;;;6.07;2.88;;;9.70;85.20;;;;;;5037708;28;20029;-77
2022/12/28 06:37:53;;;;;;;5.60;2.67;;;9.70;85.30;;;;;;5043799;28;20362;-74
2022/12/28 06:40:18;;;;;;;5.75;2.50;;;9.70;85.30;;;;;;5038445;28;20525;-75
2022/12/28 06:42:44;;;;;;;7.18;2.55;;;9.80;85.30;;;;;;5033350;28;20061;-76
2022/12/28 06:45:10;;;;;;;5.75;2.60;;;9.80;85.40;;;;;;5026176;28;20026;-74
2022/12/28 06:47:36;;;;;;;5.93;2.85;;;9.80;85.40;;;;;;5037419;28;20461;-76
2022/12/28 06:50:03;;;;;;;6.57;2.92;;;9.90;85.50;;;;;;5052196;28;20025;-75
2022/12/28 06:52:28;;;;;;;6.55;2.65;;;9.90;85.40;;;;;;5029334;28;20057;-77
2022/12/28 06:54:54;;;;;;;5.38;2.55;;;9.90;85.30;;;;;;5043189;28;20178;-77
2022/12/28 06:57:20;;;;;;;5.28;2.50;;;10.00;85.30;;;;;;5028596;28;20449;-76
2022/12/28 06:59:46;;;;;;;6.68;2.72;;;10.00;85.30;;;;;;5054241;28;20104;-77
2022/12/28 07:02:11;;;;;;;5.95;2.72;;;10.00;85.30;;;;;;5030794;28;20362;-78
2022/12/28 07:04:37;;;;;;;6.53;2.90;;;10.00;85.40;;;;;;5056059;28;20028;-78
2022/12/28 07:07:03;;;;;;;7.63;2.67;;;10.00;85.40;;;;;;5032165;28;20021;-77
2022/12/28 07:09:29;;;;;;;6.47;2.38;;;10.00;85.40;;;;;;5020616;28;20048;-77
2022/12/28 07:11:54;;;;;;;6.00;2.50;;;10.00;85.40;;;;;;5055022;28;20040;-76
2022/12/28 07:14:21;;;;;;;6.32;2.60;;;10.00;85.50;;;;;;5034613;28;20041;-77
2022/12/28 07:16:48;;;;;;;5.22;2.67;;;10.00;85.40;;;;;;5068003;28;20021;-76
2022/12/28 07:19:13;;;;;;;6.45;2.72;;;10.00;85.50;;;;;;5055142;28;20038;-76
2022/12/28 07:21:39;;;;;;;5.72;2.42;;;10.00;85.50;;;;;;5019322;28;20041;-76
2022/12/28 07:24:06;;;;;;;6.93;2.80;;;10.00;85.60;;;;;;5042875;28;20029;-76
2022/12/28 07:26:34;;;;;;;6.13;3.00;;;10.00;85.60;;;;;;5015382;28;20179;-76
2022/12/28 07:29:02;;;;;;;6.35;2.70;;;10.00;85.60;;;;;;5033904;28;20064;-76
2022/12/28 07:31:30;;;;;;;5.40;2.90;;;10.00;85.60;;;;;;5023156;28;20025;-75
2022/12/28 07:33:59;;;;;;;5.20;2.42;;;10.00;85.70;;;;;;5032600;28;20044;-76
2022/12/28 07:36:27;;;;;;;6.55;2.53;;;10.00;85.70;;;;;;5024599;28;20036;-75
2022/12/28 07:38:53;;;;;;;6.20;2.65;;;10.00;85.80;;;;;;5028898;28;20033;-76
2022/12/28 07:41:24;;;;;;;4.95;2.42;;;10.00;85.80;;;;;;5034974;28;20037;-76
2022/12/28 07:43:50;;;;;;;4.82;2.38;;;10.10;85.90;;;;;;5028513;28;20026;-75
2022/12/28 07:46:21;;;;;;;6.25;2.60;;;10.00;85.80;;;;;;5033947;28;20029;-76
2022/12/28 07:48:48;;;;;;;6.82;2.40;;;10.10;86.00;;;;;;5019061;28;20037;-75
2022/12/28 07:51:29;;;;;;;6.43;2.60;;;10.00;85.80;;;;;;5033567;28;20029;-76
2022/12/28 07:53:56;;;;;;;5.70;2.47;;;10.10;86.00;;;;;;5034263;28;20060;-76
2022/12/28 07:56:24;;;;;;;4.70;2.20;;;10.10;86.00;;;;;;5032880;28;20096;-76
2022/12/28 07:58:52;;;;;;;7.25;2.70;;;10.10;85.90;;;;;;5033274;28;20037;-75
2022/12/28 08:01:20;;;;;;;5.32;2.72;;;10.10;85.90;;;;;;5033130;28;20022;-76
2022/12/28 08:03:46;;;;;;;8.00;2.88;;;10.10;86.00;;;;;;5032648;28;20122;-76
2022/12/28 08:06:14;;;;;;;5.72;2.78;;;10.10;86.00;;;;;;5032965;28;20056;-75
2022/12/28 08:08:42;;;;;;;4.93;2.53;;;10.10;86.00;;;;;;5032901;28;20065;-76
2022/12/28 08:11:14;;;;;;;6.18;2.90;;;10.20;86.00;;;;;;5034573;28;20458;-76
2022/12/28 08:13:41;;;;;;;6.70;3.20;;;10.20;86.00;;;;;;5038572;28;20030;-76
2022/12/28 08:16:12;;;;;;;5.75;2.97;;;10.20;85.90;;;;;;5015209;28;20029;-76
2022/12/28 08:18:39;;;;;;;6.15;2.88;;;10.20;85.90;;;;;;5033426;28;20037;-76
2022/12/28 08:21:14;;;;;;;5.60;2.70;;;10.20;85.90;;;;;;5033454;28;20056;-76
2022/12/28 08:23:40;;;;;;;7.32;2.80;;;10.20;86.00;;;;;;5033513;28;20034;-76
2022/12/28 08:26:13;;;;;;;6.80;3.53;;;10.20;86.00;;;;;;5033147;28;20053;-76
2022/12/28 08:28:40;;;;;;;9.05;3.30;;;10.20;86.00;;;;;;5021067;28;20041;-76
2022/12/28 08:31:14;;;;;;;6.97;3.08;;;10.20;86.00;;;;;;5066924;28;20033;-76
2022/12/28 08:33:40;;;;;;;8.02;2.80;;;10.20;86.10;;;;;;5019880;28;20049;-76
2022/12/28 08:36:08;;;;;;;7.45;3.22;;;10.20;86.10;;;;;;5066412;28;20359;-76
2022/12/28 08:38:34;;;;;;;6.82;2.88;;;10.20;86.20;;;;;;5016642;28;20478;-76
2022/12/28 08:41:02;;;;;;;6.15;2.90;;;10.30;86.90;;;;;;5066527;28;20029;-76
2022/12/28 08:43:29;;;;;;;5.57;3.00;;;10.30;86.20;;;;;;5033098;28;20040;-76
2022/12/28 08:46:05;;;;;;;6.30;3.08;;;10.30;86.20;;;;;;5066249;28;20450;-76
2022/12/28 08:48:31;;;;;;;7.45;3.03;;;10.30;86.20;;;;;;5034357;28;20025;-76
2022/12/28 08:51:12;;;;;;;7.72;2.83;;;10.30;86.10;;;;;;5015194;28;20025;-76
2022/12/28 08:53:38;;;;;;;8.80;3.72;;;10.30;86.10;;;;;;5033338;28;20025;-76
2022/12/28 08:56:13;;;;;;;6.25;2.90;;;10.30;86.10;;;;;;5033205;28;20355;-76
2022/12/28 08:58:40;;;;;;;7.40;3.22;;;10.40;86.10;;;;;;5035374;28;20047;-76
2022/12/28 09:01:08;;;;;;;5.88;2.63;;;10.30;86.00;;;;;;5017396;28;20038;-76
2022/12/28 09:03:36;;;;;;;9.23;2.70;;;10.30;86.00;;;;;;5018342;28;20041;-76
2022/12/28 09:06:03;;;;;;;7.07;2.83;;;10.40;86.10;;;;;;5037312;28;20044;-76
2022/12/28 09:08:29;;;;;;;4.85;2.50;;;10.40;86.10;;;;;;5058092;28;20036;-76
2022/12/28 09:11:02;;;;;;;6.10;3.30;;;10.40;86.10;;;;;;5044947;28;20358;-77
2022/12/28 09:13:28;;;;;;;6.80;2.80;;;10.40;86.10;;;;;;5043879;28;20054;-76
2022/12/28 09:16:12;;;;;;;6.75;2.60;;;10.40;86.10;;;;;;5028825;28;20347;-76
2022/12/28 09:18:39;;;;;;;5.43;2.45;;;10.40;86.10;;;;;;5036542;28;20041;-76
2022/12/28 09:21:05;;;;;;;6.20;2.83;;;10.40;86.10;;;;;;5032691;28;20034;-76
2022/12/28 09:23:31;;;;;;;5.82;2.40;;;10.40;86.10;;;;;;5044601;28;20114;-76
2022/12/28 09:26:32;;;;;;;5.57;2.45;;;10.40;86.10;;;;;;5036350;28;20442;-76
2022/12/28 09:28:59;;;;;;;5.32;2.25;;;10.40;86.20;;;;;;5042531;28;20052;-76
2022/12/28 09:31:27;;;;;;;5.65;2.05;;;10.40;86.20;;;;;;5033179;28;20511;-76
2022/12/28 09:34:00;;;;;;;5.88;2.72;;;10.40;86.20;;;;;;5036372;28;20057;-76
2022/12/28 09:36:43;;;;;;;5.00;2.28;;;10.40;86.30;;;;;;5044558;28;20029;-76
2022/12/28 09:39:16;;;;;;;5.75;2.53;;;10.40;86.30;;;;;;5028656;28;20025;-76
2022/12/28 09:41:57;;;;;;;7.03;2.60;;;10.40;86.40;;;;;;5036972;28;20048;-76
2022/12/28 09:45:01;;;;;;;7.18;2.80;;;10.50;86.50;;;;;;5022069;28;20350;-77
2022/12/28 09:47:54;;;;;;;6.03;2.58;;;10.50;86.50;;;;;;5036023;28;20121;-76
2022/12/28 09:50:30;;;;;;;6.13;2.85;;;10.40;86.30;;;;;;5069188;28;20048;-76
2022/12/28 09:53:04;;;;;;;8.88;3.22;;;10.40;86.40;;;;;;5036889;28;20025;-76
2022/12/28 09:55:37;;;;;;;8.43;2.80;;;10.40;86.50;;;;;;5036063;28;20393;-76
2022/12/28 09:58:12;;;;;;;9.10;3.10;;;10.50;86.60;;;;;;5003166;28;20030;-77
2022/12/28 10:00:45;;;;;;;7.03;2.95;;;10.50;86.50;;;;;;5063397;28;20033;-77
2022/12/28 10:03:22;;;;;;;6.90;3.00;;;10.50;86.50;;;;;;5015316;28;20084;-77
2022/12/28 10:05:50;;;;;;;6.00;2.95;;;10.50;86.50;;;;;;5030238;28;20040;-76
2022/12/28 10:08:19;;;;;;;7.20;3.00;;;10.50;86.50;;;;;;5061815;28;20037;-76
2022/12/28 10:10:46;;;;;;;7.95;3.20;;;10.50;86.60;;;;;;5034903;28;20485;-76
2022/12/28 10:13:21;;;;;;;6.93;2.90;;;10.50;86.50;;;;;;5024120;28;20021;-77
2022/12/28 10:15:47;;;;;;;6.57;2.70;;;10.50;86.60;;;;;;5025918;28;20362;-76
2022/12/28 10:18:14;;;;;;;6.50;2.97;;;10.50;86.60;;;;;;5034681;28;20036;-76
2022/12/28 10:20:42;;;;;;;7.75;2.75;;;10.50;86.60;;;;;;5018692;28;20366;-76
2022/12/28 10:23:13;;;;;;;9.10;3.05;;;10.50;86.70;;;;;;5035623;28;20037;-76
2022/12/28 10:25:39;;;;;;;6.68;2.50;;;10.50;86.80;;;;;;5029376;28;20136;-77
2022/12/28 10:28:10;;;;;;;6.03;2.33;;;10.60;86.80;;;;;;5014724;28;20053;-77
2022/12/28 10:31:07;;;;;;;5.72;2.63;;;10.60;86.80;;;;;;5010746;28;20336;-80
2022/12/28 10:33:41;;;;;;;6.10;2.17;;;10.60;86.70;;;;;;5031185;28;20034;-80
2022/12/28 10:36:15;;;;;;;6.63;2.50;;;10.60;86.70;;;;;;5037632;28;20037;-80
2022/12/28 10:38:48;;;;;;;5.68;2.20;;;10.60;86.80;;;;;;5041364;28;20111;-82
2022/12/28 10:41:17;;;;;;;7.93;2.63;;;10.60;86.90;;;;;;5024715;28;20025;-81
2022/12/28 10:43:50;;;;;;;5.88;2.15;;;10.60;86.80;;;;;;5054625;28;20025;-80
2022/12/28 10:46:17;;;;;;;5.70;2.40;;;10.60;86.90;;;;;;5040431;28;20026;-81
2022/12/28 10:48:55;;;;;;;5.38;2.15;;;10.60;86.90;;;;;;5067826;28;20036;-81
2022/12/28 10:51:26;;;;;;;6.47;2.80;;;10.60;86.90;;;;;;5027231;28;20029;-81
2022/12/28 10:53:57;;;;;;;5.22;2.65;;;10.60;86.90;;;;;;5039967;28;20021;-80
2022/12/28 10:56:28;;;;;;;6.13;2.38;;;10.60;86.90;;;;;;5042745;28;20028;-81
2022/12/28 10:59:25;;;;;;;5.57;2.42;;;10.70;86.90;;;;;;5038486;28;20048;-80
2022/12/28 11:02:13;;;;;;;5.68;2.20;;;10.70;86.80;;;;;;5018083;28;20454;-80
2022/12/28 11:04:55;;;;;;;5.00;1.95;;;10.70;86.80;;;;;;5014933;28;20354;-81
2022/12/28 11:07:40;;;;;;;4.70;2.10;;;10.70;86.80;;;;;;5014994;28;20030;-82
2022/12/28 11:10:21;;;;;;;5.82;2.00;;;10.70;86.80;;;;;;5034137;28;20037;-80
2022/12/28 11:12:48;;;;;;;4.93;2.08;;;10.70;86.80;;;;;;5034718;28;20060;-81
2022/12/28 11:15:17;;;;;;;5.32;1.90;;;10.70;86.80;;;;;;5051231;28;20131;-78
2022/12/28 11:17:48;;;;;;;4.38;1.90;;;10.70;86.90;;;;;;5049550;28;20030;-79
2022/12/28 11:20:21;;;;;;;3.88;1.80;;;10.70;86.90;;;;;;5040332;28;20084;-80
2022/12/28 11:22:47;;;;;;;3.95;2.00;;;10.70;87.60;;;;;;5017711;28;20037;-83
2022/12/28 11:25:33;;;;;;;5.18;1.60;;;10.70;87.00;;;;;;5047824;28;20137;-82
2022/12/28 11:28:05;;;;;;;3.88;1.70;;;10.70;86.90;;;;;;5018975;28;20120;-80
2022/12/28 11:30:31;;;;;;;2.63;1.52;;;10.70;86.90;;;;;;5067330;28;20350;-81
2022/12/28 11:33:00;;;;;;;3.05;1.50;;;10.80;86.90;;;;;;5065667;28;20029;-79
2022/12/28 11:35:37;;;;;;;3.95;1.70;;;10.80;87.00;;;;;;5050378;28;20108;-79
2022/12/28 11:38:05;;;;;;;3.72;1.60;;;10.80;87.00;;;;;;5034781;28;20033;-79
2022/12/28 11:40:43;;;;;;;3.40;1.50;;;10.80;86.90;;;;;;5019515;28;20040;-80
2022/12/28 11:43:27;;;;;;;3.38;1.60;;;10.80;87.00;;;;;;5036686;28;20030;-80
2022/12/28 11:45:55;;;;;;;3.03;1.50;;;10.80;87.00;;;;;;5034293;28;20124;-80
2022/12/28 11:48:40;;;;;;;3.33;1.63;;;10.80;87.00;;;;;;5034649;28;20064;-79
2022/12/28 11:51:15;;;;;;;2.50;1.38;;;10.80;87.00;;;;;;5038271;28;20055;-79
2022/12/28 11:53:43;;;;;;;3.40;1.40;;;10.80;87.00;;;;;;5038490;28;20366;-79
2022/12/28 11:56:17;;;;;;;3.83;1.50;;;10.80;87.00;;;;;;5024163;28;20102;-78
2022/12/28 11:58:46;;;;;;;2.60;1.55;;;10.80;87.10;;;;;;5053470;28;20025;-79
2022/12/28 12:01:35;;;;;;;5.15;1.70;;;10.80;87.00;;;;;;5029640;28;20037;-78
2022/12/28 12:04:08;;;;;;;4.05;1.52;;;10.90;87.00;;;;;;5031993;28;20367;-77
2022/12/28 12:06:42;;;;;;;2.95;1.60;;;10.80;86.90;;;;;;5017693;28;20034;-80
2022/12/28 12:09:20;;;;;;;3.97;1.60;;;10.80;86.90;;;;;;5034018;28;20033;-80
2022/12/28 12:12:14;;;;;;;2.45;1.35;;;10.80;86.90;;;;;;5029763;28;20160;-79
2022/12/28 12:14:56;;;;;;;6.60;1.73;;;10.90;86.90;;;;;;5036870;28;20227;-81
2022/12/28 12:17:34;;;;;;;3.00;1.60;;;10.90;86.90;;;;;;5038322;28;20032;-77
2022/12/28 12:20:06;;;;;;;5.05;1.77;;;10.90;86.80;;;;;;5032644;28;20143;-79
2022/12/28 12:22:48;;;;;;;4.72;1.83;;;10.90;86.80;;;;;;5021180;28;20026;-79
2022/12/28 12:25:23;;;;;;;4.68;1.90;;;10.90;86.80;;;;;;5065463;28;20044;-80
2022/12/28 12:28:10;;;;;;;4.22;1.52;;;10.90;86.80;;;;;;5031435;28;20177;-80
2022/12/28 12:30:40;;;;;;;5.22;2.00;;;10.90;86.70;;;;;;5033955;28;20033;-84
2022/12/28 12:33:14;;;;;;;4.28;1.95;;;10.90;86.80;;;;;;5005345;28;20030;-83
2022/12/28 12:35:55;;;;;;;4.00;1.70;;;10.90;86.80;;;;;;5034693;28;20061;-83
2022/12/28 12:38:57;;;;;;;3.97;1.75;;;10.90;86.80;;;;;;5035218;28;20131;-82
2022/12/28 12:41:48;;;;;;;4.05;1.80;;;10.90;86.70;;;;;;5017569;28;20362;-82
2022/12/28 12:44:35;;;;;;;3.80;1.77;;;10.90;86.60;;;;;;5006218;28;20436;-82
2022/12/28 12:47:08;;;;;;;5.53;2.15;;;10.90;86.60;;;;;;5020880;28;20050;-81
2022/12/28 12:49:54;;;;;;;7.10;2.42;;;10.90;86.60;;;;;;5037881;28;20060;-81
2022/12/28 12:52:39;;;;;;;8.07;2.25;;;10.90;86.50;;;;;;5052429;28;20366;-82
2022/12/28 12:55:20;;;;;;;6.55;2.17;;;10.90;86.40;;;;;;5043492;28;20474;-81
2022/12/28 12:58:13;;;;;;;5.07;1.77;;;11.00;86.40;;;;;;5033717;28;20061;-82
2022/12/28 13:01:03;;;;;;;6.78;2.38;;;11.00;86.40;;;;;;5017469;28;20694;-82
2022/12/28 13:03:51;;;;;;;5.10;1.80;;;11.00;86.30;;;;;;5047529;28;20025;-81
2022/12/28 13:06:24;;;;;;;5.90;2.10;;;11.00;86.20;;;;;;5036772;28;20061;-83
2022/12/28 13:09:01;;;;;;;4.57;1.90;;;11.00;86.30;;;;;;5048694;28;20049;-84
2022/12/28 13:11:29;;;;;;;4.97;2.13;;;11.00;86.90;;;;;;5021842;28;20056;-82
2022/12/28 13:13:56;;;;;;;6.72;2.05;;;11.00;86.20;;;;;;5038322;28;20094;-82
2022/12/28 13:16:24;;;;;;;5.18;2.10;;;11.00;86.20;;;;;;5019254;28;20025;-82
2022/12/28 13:18:58;;;;;;;6.93;2.20;;;11.00;86.10;;;;;;5025643;28;20053;-82
2022/12/28 13:21:29;;;;;;;5.15;2.00;;;11.00;86.00;;;;;;5034993;28;20025;-83
2022/12/28 13:23:55;;;;;;;7.00;2.78;;;11.10;86.00;;;;;;5030826;28;20033;-82
2022/12/28 13:26:26;;;;;;;9.00;2.40;;;11.10;86.00;;;;;;5038642;28;20076;-82
2022/12/28 13:28:58;;;;;;;7.85;2.35;;;11.10;86.00;;;;;;5037885;28;20036;-82
2022/12/28 13:31:34;;;;;;;;;;;11.00;85.90;;;;;;5038069;28;20438;-82
2022/12/28 13:34:05;;;;;;;5.97;1.85;;;11.10;85.90;;;;;;5020910;28;19909;-82
2022/12/28 13:37:06;;;;;;;5.03;2.17;;;11.00;85.80;;;;;;5021649;28;20111;-82
2022/12/28 13:39:33;;;;;;;7.72;2.22;;;11.10;85.70;;;;;;5021033;28;20056;-82